Marquette, Michigan
Current Conditions -  °F | °C
As of 6:47 PM on Friday 24 Oct 2014 (Local Time) from KSAW Reporting Station
Clear Clear  
Wind Chill: 54°   Ceiling: Unl
Heat Index: 54°   Visibility: 10mi
Dew Point: 46°   Wind: 12mph
Humidity: 77%   Direction: 170°S
Pressure: 29.83"   Gusts: NA
Location:  46.55°N, 87.41°W
Report Text: KSAW 242247Z 17010KT 10SM SKC 12/08 A2983
Loading
Personal Weather Stations






























Interactive Weather Map New forecast layout! Learn more

10-Day Weather Forecast

Advertisements
Track Severe Weather on mobile